Time;durP1;ratioP1;P1;durP2;ratioP2;P2;SDS_P1;SDS_P2;PMS_P1;PMS_P2;Temp;Humidity;BMP_temperature;BMP_pressure;BME280_temperature;BME280_humidity;BME280_pressure;Samples;Min_cycle;Max_cycle;Signal;HPM_P1;HPM_P2
2022/02/20 00:02:08;;;;;;;0.40;0.20;;;7.30;74.20;;;;;;4992794;28;20456;-68
2022/02/20 00:04:34;;;;;;;0.40;0.20;;;7.30;74.50;;;;;;4991973;28;20402;-68
2022/02/20 00:07:00;;;;;;;0.40;0.20;;;7.30;75.50;;;;;;4992430;28;20400;-69
2022/02/20 00:09:26;;;;;;;0.40;0.20;;;7.20;75.60;;;;;;4991546;28;20430;-68
2022/02/20 00:11:51;;;;;;;0.40;0.20;;;7.20;75.60;;;;;;4974440;28;20429;-68
2022/02/20 00:14:17;;;;;;;0.40;0.30;;;7.20;75.80;;;;;;4992689;28;20386;-68
2022/02/20 00:16:43;;;;;;;0.40;0.20;;;7.20;76.30;;;;;;4991634;28;20395;-67
2022/02/20 00:19:08;;;;;;;0.40;0.20;;;7.10;76.20;;;;;;4992440;28;20410;-67
2022/02/20 00:21:34;;;;;;;0.40;0.20;;;7.20;76.70;;;;;;4990896;28;20414;-69
2022/02/20 00:24:00;;;;;;;0.40;0.20;;;7.10;77.00;;;;;;4992473;28;20509;-68
2022/02/20 00:26:25;;;;;;;0.40;0.20;;;7.10;77.60;;;;;;4992127;28;20390;-69
2022/02/20 00:28:51;;;;;;;0.40;0.20;;;7.10;78.10;;;;;;4991810;28;20490;-69
2022/02/20 00:31:17;;;;;;;0.40;0.20;;;7.00;78.00;;;;;;4992041;28;20382;-68
2022/02/20 00:33:42;;;;;;;0.40;0.20;;;7.10;78.10;;;;;;4990628;28;20923;-69
2022/02/20 00:36:08;;;;;;;0.40;0.20;;;7.10;78.50;;;;;;4991825;28;20392;-68
2022/02/20 00:38:34;;;;;;;0.40;0.20;;;7.00;79.00;;;;;;4990820;28;20410;-69
2022/02/20 00:41:00;;;;;;;0.40;0.20;;;7.00;79.10;;;;;;4991921;28;20819;-68
2022/02/20 00:43:26;;;;;;;0.40;0.20;;;7.00;79.30;;;;;;4992186;28;20422;-68
2022/02/20 00:45:51;;;;;;;0.40;0.20;;;7.00;79.80;;;;;;4991127;28;20383;-68
2022/02/20 00:48:20;;;;;;;0.40;0.20;;;7.00;79.80;;;;;;4991697;28;20397;-68
2022/02/20 00:50:49;;;;;;;0.40;0.20;;;7.00;80.10;;;;;;4990924;28;20398;-69
2022/02/20 00:53:14;;;;;;;0.40;0.20;;;7.00;80.40;;;;;;4992118;28;20689;-68
2022/02/20 00:55:40;;;;;;;0.40;0.20;;;7.00;81.20;;;;;;4991548;28;20393;-69
2022/02/20 00:58:08;;;;;;;0.40;0.20;;;7.00;81.80;;;;;;4990532;28;20391;-69
2022/02/20 01:00:34;;;;;;;0.40;0.20;;;7.00;82.70;;;;;;4991416;28;20799;-69
2022/02/20 01:03:00;;;;;;;0.40;0.20;;;7.00;83.60;;;;;;4990910;28;20386;-68
2022/02/20 01:05:26;;;;;;;0.40;0.20;;;7.00;84.10;;;;;;4991617;28;20408;-69
2022/02/20 01:07:51;;;;;;;0.40;0.20;;;7.00;84.50;;;;;;4990209;28;20399;-71
2022/02/20 01:10:18;;;;;;;0.40;0.20;;;6.90;85.60;;;;;;4973639;28;20696;-69
2022/02/20 01:12:45;;;;;;;0.40;0.22;;;6.90;86.60;;;;;;4991266;28;20530;-68
2022/02/20 01:15:14;;;;;;;0.40;0.30;;;6.90;87.60;;;;;;4990671;28;20379;-68
2022/02/20 01:17:41;;;;;;;0.40;0.20;;;6.90;88.10;;;;;;4973880;28;20743;-69
2022/02/20 01:20:08;;;;;;;0.40;0.20;;;6.90;88.60;;;;;;4990412;28;20517;-69
2022/02/20 01:22:34;;;;;;;0.40;0.20;;;6.90;89.60;;;;;;4991049;28;20386;-68
2022/02/20 01:25:00;;;;;;;0.40;0.30;;;6.80;90.70;;;;;;4991335;28;20398;-69
2022/02/20 01:27:26;;;;;;;0.40;0.20;;;6.80;91.20;;;;;;4990748;28;20386;-69
2022/02/20 01:29:52;;;;;;;0.40;0.20;;;6.70;91.60;;;;;;4974121;28;20747;-68
2022/02/20 01:32:18;;;;;;;0.40;0.20;;;6.70;91.90;;;;;;4990577;28;20390;-69
2022/02/20 01:34:43;;;;;;;0.40;0.30;;;6.80;91.90;;;;;;4990768;28;20391;-68
2022/02/20 01:37:09;;;;;;;0.40;0.20;;;6.80;91.80;;;;;;4990638;28;20472;-71
2022/02/20 01:39:35;;;;;;;0.40;0.20;;;6.70;91.90;;;;;;4990079;28;20501;-69
2022/02/20 01:42:01;;;;;;;0.40;0.23;;;6.70;92.00;;;;;;4990343;28;20855;-69
2022/02/20 01:44:26;;;;;;;0.40;0.20;;;6.70;92.20;;;;;;4990347;28;20387;-69
2022/02/20 01:46:52;;;;;;;0.40;0.20;;;6.70;92.50;;;;;;4990646;28;20728;-69
2022/02/20 01:49:20;;;;;;;0.40;0.20;;;6.70;92.80;;;;;;4990477;28;20406;-71
2022/02/20 01:51:46;;;;;;;0.40;0.40;;;6.70;93.20;;;;;;4991072;28;20410;-69
2022/02/20 01:54:12;;;;;;;0.40;0.30;;;6.60;93.60;;;;;;4990828;28;20709;-69
2022/02/20 01:56:38;;;;;;;0.40;0.20;;;6.60;94.00;;;;;;4972628;28;20398;-68
2022/02/20 01:59:05;;;;;;;0.40;0.20;;;6.60;94.60;;;;;;4990811;28;20895;-68
2022/02/20 02:01:32;;;;;;;0.40;0.20;;;6.50;94.90;;;;;;4990000;28;20482;-69
2022/02/20 02:03:57;;;;;;;0.40;0.20;;;6.60;95.10;;;;;;4991090;28;20538;-68
2022/02/20 02:06:23;;;;;;;0.40;0.20;;;6.50;95.20;;;;;;4990837;28;20470;-68
2022/02/20 02:08:49;;;;;;;0.40;0.20;;;6.60;95.20;;;;;;4989842;28;20409;-70
2022/02/20 02:11:15;;;;;;;0.40;0.20;;;6.50;95.40;;;;;;4990967;28;20410;-69
2022/02/20 02:13:41;;;;;;;0.40;0.20;;;6.60;95.50;;;;;;4990166;28;20393;-69
2022/02/20 02:16:06;;;;;;;0.40;0.20;;;6.50;95.90;;;;;;4991119;28;20379;-69
2022/02/20 02:18:32;;;;;;;0.40;0.20;;;6.60;96.10;;;;;;4992922;28;20429;-68
2022/02/20 02:20:58;;;;;;;0.40;0.20;;;6.60;96.30;;;;;;4993629;28;20410;-68
2022/02/20 02:23:24;;;;;;;0.40;0.30;;;6.60;96.90;;;;;;4994516;28;20390;-69
2022/02/20 02:25:54;;;;;;;0.40;0.20;;;6.60;97.20;;;;;;4976443;28;20468;-69
2022/02/20 02:28:20;;;;;;;0.40;0.20;;;6.50;97.70;;;;;;4994426;28;20724;-69
2022/02/20 02:30:47;;;;;;;0.40;0.20;;;6.60;97.90;;;;;;4993966;28;20894;-69
2022/02/20 02:33:28;;;;;;;0.40;0.20;;;6.50;98.30;;;;;;4993794;28;20879;-68
2022/02/20 02:35:53;;;;;;;0.40;0.30;;;6.50;98.60;;;;;;4993579;28;20382;-69
2022/02/20 02:38:25;;;;;;;0.40;0.20;;;6.50;98.80;;;;;;4993927;28;20493;-68
2022/02/20 02:40:51;;;;;;;0.40;0.20;;;6.50;99.00;;;;;;4976954;28;20695;-69
2022/02/20 02:43:17;;;;;;;0.40;0.30;;;6.50;98.90;;;;;;4976136;28;20458;-68
2022/02/20 02:45:42;;;;;;;0.40;0.30;;;6.50;98.80;;;;;;4993659;28;20394;-69
2022/02/20 02:48:08;;;;;;;0.40;0.20;;;6.50;99.00;;;;;;4993036;28;20469;-68
2022/02/20 02:50:34;;;;;;;0.40;0.30;;;6.50;99.20;;;;;;4993891;28;20489;-68
2022/02/20 02:52:59;;;;;;;0.40;0.20;;;6.50;99.30;;;;;;4976253;28;20415;-67
2022/02/20 02:55:25;;;;;;;0.40;0.20;;;6.50;99.50;;;;;;4993228;28;20406;-68
2022/02/20 02:57:52;;;;;;;0.40;0.20;;;6.50;99.80;;;;;;4993826;28;20469;-68
2022/02/20 03:00:17;;;;;;;0.40;0.20;;;6.50;99.90;;;;;;4992848;28;20609;-67
2022/02/20 03:02:43;;;;;;;0.40;0.20;;;6.50;99.90;;;;;;4993595;28;20898;-68
2022/02/20 03:05:09;;;;;;;0.40;0.30;;;6.50;99.90;;;;;;4993175;28;20401;-68
2022/02/20 03:07:34;;;;;;;0.40;0.30;;;6.40;99.90;;;;;;4992981;28;20464;-68
2022/02/20 03:10:00;;;;;;;0.40;0.20;;;6.50;99.90;;;;;;4993505;28;20409;-67
2022/02/20 03:12:25;;;;;;;0.40;0.30;;;6.40;99.90;;;;;;4992838;28;20595;-68
2022/02/20 03:14:51;;;;;;;0.40;0.20;;;6.40;99.90;;;;;;4993379;28;20397;-68
2022/02/20 03:17:17;;;;;;;0.40;0.20;;;6.50;99.90;;;;;;4993643;28;20490;-68
2022/02/20 03:19:42;;;;;;;0.40;0.20;;;6.40;99.90;;;;;;4992583;28;20501;-68
2022/02/20 03:22:08;;;;;;;0.40;0.20;;;6.40;99.90;;;;;;4993108;28;20747;-67
2022/02/20 03:24:34;;;;;;;0.40;0.20;;;6.50;99.90;;;;;;4992677;28;20819;-68
2022/02/20 03:26:59;;;;;;;0.40;0.30;;;6.50;99.90;;;;;;4993407;28;20387;-67
2022/02/20 03:29:25;;;;;;;0.40;0.20;;;6.50;99.90;;;;;;4992097;28;20405;-67
2022/02/20 03:31:51;;;;;;;0.40;0.20;;;6.40;99.90;;;;;;4992471;28;20394;-68
2022/02/20 03:34:16;;;;;;;0.40;0.20;;;6.40;99.90;;;;;;4992981;28;20427;-67
2022/02/20 03:36:42;;;;;;;0.40;0.20;;;6.40;99.90;;;;;;4992265;28;20453;-67
2022/02/20 03:39:08;;;;;;;0.40;0.20;;;6.50;99.90;;;;;;4993199;28;20453;-67
2022/02/20 03:41:33;;;;;;;0.40;0.30;;;6.50;99.90;;;;;;4975699;28;20949;-67
2022/02/20 03:43:59;;;;;;;0.40;0.20;;;6.50;99.90;;;;;;4992358;28;20457;-67
2022/02/20 03:46:25;;;;;;;0.40;0.20;;;6.50;99.90;;;;;;4992475;28;20402;-68
2022/02/20 03:48:50;;;;;;;0.40;0.20;;;6.50;99.90;;;;;;4992008;28;20429;-68
2022/02/20 03:51:16;;;;;;;0.40;0.20;;;6.50;99.90;;;;;;4992380;28;20413;-68
2022/02/20 03:53:42;;;;;;;0.40;0.20;;;6.40;99.90;;;;;;4975288;28;20783;-68
2022/02/20 03:56:08;;;;;;;0.40;0.20;;;6.50;99.90;;;;;;4992386;28;20398;-68
2022/02/20 03:58:33;;;;;;;0.40;0.20;;;6.40;99.90;;;;;;4975190;28;20458;-68
2022/02/20 04:00:59;;;;;;;0.40;0.20;;;6.40;99.90;;;;;;4991805;28;20394;-68
2022/02/20 04:03:25;;;;;;;0.50;0.50;;;6.50;99.90;;;;;;4992084;28;20497;-68
2022/02/20 04:05:51;;;;;;;0.50;0.50;;;6.50;99.90;;;;;;4992418;28;20725;-68
2022/02/20 04:08:16;;;;;;;0.40;0.30;;;6.50;99.90;;;;;;4992089;28;20394;-69
2022/02/20 04:10:42;;;;;;;0.40;0.20;;;6.50;99.90;;;;;;4992372;28;20434;-68
2022/02/20 04:13:08;;;;;;;0.40;0.20;;;6.50;99.90;;;;;;4991841;28;20546;-68
2022/02/20 04:15:33;;;;;;;0.40;0.30;;;6.50;99.90;;;;;;4992387;28;20860;-68
2022/02/20 04:17:59;;;;;;;0.40;0.20;;;6.50;99.90;;;;;;4992317;28;20449;-68
2022/02/20 04:20:25;;;;;;;0.40;0.20;;;6.50;99.90;;;;;;4991326;28;20794;-68
2022/02/20 04:22:50;;;;;;;0.40;0.30;;;6.50;99.90;;;;;;4992515;28;20385;-69
2022/02/20 04:25:16;;;;;;;0.40;0.20;;;6.50;99.90;;;;;;4992001;28;20385;-69
2022/02/20 04:27:43;;;;;;;0.40;0.20;;;6.50;99.90;;;;;;4992403;28;20482;-68
2022/02/20 04:30:10;;;;;;;0.40;0.20;;;6.50;99.90;;;;;;4991907;28;20402;-68
2022/02/20 04:32:36;;;;;;;0.40;0.20;;;6.50;99.90;;;;;;4991630;28;20415;-68
2022/02/20 04:35:03;;;;;;;4.50;0.60;;;6.50;99.90;;;;;;4992402;28;20744;-69
2022/02/20 04:37:28;;;;;;;0.40;0.20;;;6.50;99.90;;;;;;4974120;28;20791;-68
2022/02/20 04:39:54;;;;;;;0.40;0.20;;;6.40;99.90;;;;;;4974254;28;20418;-68
2022/02/20 04:42:20;;;;;;;0.40;0.20;;;6.40;99.90;;;;;;4991002;28;20450;-70
2022/02/20 04:44:45;;;;;;;0.65;0.65;;;6.50;99.90;;;;;;4992074;28;20482;-68
2022/02/20 04:47:11;;;;;;;0.40;0.20;;;6.40;99.90;;;;;;4992164;28;20414;-68
2022/02/20 04:49:37;;;;;;;0.40;0.20;;;6.40;99.90;;;;;;4991477;28;20478;-67
2022/02/20 04:52:03;;;;;;;0.40;0.20;;;6.40;99.90;;;;;;4974710;28;20875;-68
2022/02/20 04:54:29;;;;;;;0.40;0.20;;;6.50;99.90;;;;;;4991472;28;20747;-68
2022/02/20 04:56:55;;;;;;;0.40;0.20;;;6.40;99.90;;;;;;4991710;28;20401;-68
2022/02/20 04:59:21;;;;;;;0.40;0.20;;;6.40;99.90;;;;;;4991953;28;20406;-68
2022/02/20 05:01:46;;;;;;;0.40;0.20;;;6.40;99.90;;;;;;4991165;28;20417;-68
2022/02/20 05:04:13;;;;;;;0.40;0.20;;;6.40;99.90;;;;;;4992417;28;20379;-67
2022/02/20 05:06:39;;;;;;;0.40;0.20;;;6.40;99.90;;;;;;4991267;28;20385;-68
2022/02/20 05:09:05;;;;;;;0.40;0.20;;;6.40;99.90;;;;;;4991538;28;20399;-68
2022/02/20 05:11:31;;;;;;;0.40;0.30;;;6.40;99.90;;;;;;4991918;28;20407;-68
2022/02/20 05:13:58;;;;;;;0.40;0.20;;;6.40;99.90;;;;;;4991101;28;20816;-68
2022/02/20 05:16:26;;;;;;;0.40;0.20;;;6.40;99.90;;;;;;4991717;28;20477;-68
2022/02/20 05:18:52;;;;;;;0.40;0.30;;;6.40;99.90;;;;;;4990973;28;20803;-68
2022/02/20 05:21:18;;;;;;;0.40;0.20;;;6.40;99.90;;;;;;4974127;28;20414;-68
2022/02/20 05:23:45;;;;;;;0.40;0.20;;;6.40;99.90;;;;;;4992097;28;20391;-68
2022/02/20 05:26:12;;;;;;;0.40;0.20;;;6.40;99.90;;;;;;4990819;28;20905;-67
2022/02/20 05:28:41;;;;;;;0.40;0.20;;;6.30;99.90;;;;;;4991366;28;20390;-68
2022/02/20 05:31:08;;;;;;;0.40;0.20;;;6.40;99.90;;;;;;4990771;28;20840;-68
2022/02/20 05:33:33;;;;;;;0.40;0.20;;;6.40;99.90;;;;;;4991490;28;20410;-68
2022/02/20 05:35:59;;;;;;;0.40;0.20;;;6.40;99.90;;;;;;4991156;28;20448;-68
2022/02/20 05:38:25;;;;;;;0.40;0.20;;;6.40;99.90;;;;;;4991004;28;20771;-68
2022/02/20 05:40:51;;;;;;;0.40;0.20;;;6.40;99.90;;;;;;4991589;28;20490;-68
2022/02/20 05:43:17;;;;;;;0.40;0.20;;;6.40;99.90;;;;;;4990992;28;20763;-68
2022/02/20 05:45:43;;;;;;;0.40;0.20;;;6.40;99.90;;;;;;4991452;28;20398;-68
2022/02/20 05:48:08;;;;;;;0.40;0.20;;;6.40;99.90;;;;;;4991056;28;20383;-68
2022/02/20 05:50:34;;;;;;;0.40;0.40;;;6.40;99.90;;;;;;4990845;28;20464;-68
2022/02/20 05:53:00;;;;;;;0.40;0.20;;;6.50;99.90;;;;;;4994598;28;20394;-68
2022/02/20 05:55:26;;;;;;;0.40;0.20;;;6.40;99.90;;;;;;4979564;28;20394;-68
2022/02/20 05:57:54;;;;;;;0.40;0.20;;;6.40;99.90;;;;;;4997418;28;20878;-68
2022/02/20 06:00:23;;;;;;;0.40;0.20;;;6.40;99.90;;;;;;4997182;28;20456;-69
2022/02/20 06:02:48;;;;;;;0.40;0.20;;;6.50;99.90;;;;;;4997943;28;20513;-67
2022/02/20 06:05:14;;;;;;;0.40;0.20;;;6.50;99.90;;;;;;4997577;28;20473;-68
2022/02/20 06:07:40;;;;;;;0.40;0.20;;;6.50;99.90;;;;;;4979410;28;20875;-68
2022/02/20 06:10:07;;;;;;;0.40;0.20;;;6.50;99.90;;;;;;4997520;28;20386;-68
2022/02/20 06:12:33;;;;;;;0.40;0.20;;;6.50;99.90;;;;;;4979352;28;20405;-68
2022/02/20 06:14:59;;;;;;;0.40;0.20;;;6.60;99.90;;;;;;4998231;28;20469;-68
2022/02/20 06:17:25;;;;;;;0.40;0.20;;;6.60;99.90;;;;;;4997834;28;20895;-68
2022/02/20 06:19:51;;;;;;;0.40;0.20;;;6.70;99.90;;;;;;4996544;28;20418;-68
2022/02/20 06:22:17;;;;;;;0.40;0.20;;;6.60;99.90;;;;;;4997802;28;20394;-68
2022/02/20 06:24:43;;;;;;;0.40;0.20;;;6.60;99.90;;;;;;4997146;28;20390;-68
2022/02/20 06:27:09;;;;;;;0.40;0.20;;;6.60;99.90;;;;;;4997585;28;20394;-68
2022/02/20 06:29:35;;;;;;;0.40;0.20;;;6.70;99.90;;;;;;4997604;28;20421;-68
2022/02/20 06:32:01;;;;;;;0.40;0.20;;;6.60;99.90;;;;;;4996721;28;20470;-68
2022/02/20 06:34:26;;;;;;;0.40;0.20;;;6.70;99.90;;;;;;4997461;28;20395;-69
2022/02/20 06:36:53;;;;;;;0.40;0.20;;;6.60;99.90;;;;;;4996720;28;20892;-69
2022/02/20 06:39:19;;;;;;;0.40;0.20;;;6.60;99.90;;;;;;4979891;28;20428;-69
2022/02/20 06:41:46;;;;;;;0.40;0.20;;;6.60;99.90;;;;;;4997455;28;20382;-69
2022/02/20 06:44:12;;;;;;;0.40;0.30;;;6.70;99.90;;;;;;4979147;28;20463;-69
2022/02/20 06:46:38;;;;;;;0.40;0.20;;;6.70;99.90;;;;;;4997134;28;20395;-68
2022/02/20 06:49:07;;;;;;;0.40;0.20;;;6.70;99.90;;;;;;4996617;28;20394;-67
2022/02/20 06:51:33;;;;;;;0.40;0.30;;;6.60;99.90;;;;;;4997354;28;20454;-68
2022/02/20 06:53:58;;;;;;;0.40;0.20;;;6.60;99.90;;;;;;4997080;28;20382;-69
2022/02/20 06:56:24;;;;;;;0.40;0.20;;;6.70;99.90;;;;;;4996966;28;20406;-69
2022/02/20 06:58:50;;;;;;;0.40;0.30;;;6.70;99.90;;;;;;4997075;28;20491;-68
2022/02/20 07:01:15;;;;;;;0.40;0.20;;;6.80;99.90;;;;;;4996455;28;20966;-69
2022/02/20 07:03:41;;;;;;;0.40;0.20;;;6.90;99.90;;;;;;4996196;28;20731;-68
2022/02/20 07:06:08;;;;;;;0.40;0.20;;;6.90;99.90;;;;;;4993475;28;20441;-68
2022/02/20 07:08:34;;;;;;;0.40;0.20;;;6.90;99.90;;;;;;4993686;28;20399;-68
2022/02/20 07:10:59;;;;;;;0.40;0.30;;;6.90;99.90;;;;;;4993439;28;20418;-68
2022/02/20 07:13:27;;;;;;;0.40;0.20;;;6.90;99.90;;;;;;4992526;28;20822;-68
2022/02/20 07:15:53;;;;;;;0.40;0.20;;;6.90;99.90;;;;;;4994038;28;20461;-68
2022/02/20 07:18:20;;;;;;;0.40;0.20;;;7.00;99.90;;;;;;4993253;28;20379;-68
2022/02/20 07:20:46;;;;;;;0.40;0.30;;;6.90;99.90;;;;;;4993526;28;20399;-69
2022/02/20 07:23:12;;;;;;;0.40;0.20;;;7.00;99.90;;;;;;4993561;28;20474;-69
2022/02/20 07:25:38;;;;;;;0.40;0.25;;;7.00;99.90;;;;;;4993051;28;20387;-69
2022/02/20 07:28:04;;;;;;;0.40;0.20;;;7.00;99.90;;;;;;4993352;28;20721;-68
2022/02/20 07:30:29;;;;;;;0.40;0.20;;;7.00;99.90;;;;;;4992974;28;20386;-70
2022/02/20 07:33:04;;;;;;;0.40;0.20;;;7.10;99.90;;;;;;4993642;28;20374;-68
2022/02/20 07:35:33;;;;;;;0.40;0.20;;;7.10;99.90;;;;;;4976744;28;20391;-68
2022/02/20 07:37:58;;;;;;;0.40;0.20;;;7.10;99.90;;;;;;4975978;28;20398;-68
2022/02/20 07:40:24;;;;;;;0.40;0.20;;;7.10;99.90;;;;;;4993692;28;20410;-68
2022/02/20 07:42:51;;;;;;;0.40;0.20;;;7.10;99.90;;;;;;4992417;28;20814;-68
2022/02/20 07:45:17;;;;;;;0.40;0.20;;;7.10;99.90;;;;;;4993474;28;20864;-68
2022/02/20 07:47:52;;;;;;;0.40;0.20;;;7.20;99.90;;;;;;4975440;28;20394;-67
2022/02/20 07:50:25;;;;;;;0.40;0.30;;;7.20;99.90;;;;;;4993376;28;20398;-68
2022/02/20 07:52:51;;;;;;;0.40;0.20;;;7.20;99.90;;;;;;4975072;28;20410;-68
2022/02/20 07:55:17;;;;;;;0.40;0.20;;;7.20;99.90;;;;;;4993062;28;20393;-69
2022/02/20 07:57:44;;;;;;;0.40;0.40;;;7.30;99.90;;;;;;4986911;28;20762;-68
2022/02/20 08:00:12;;;;;;;0.40;0.20;;;7.30;99.90;;;;;;4954459;28;20500;-68
2022/02/20 08:02:38;;;;;;;0.40;0.20;;;7.30;99.90;;;;;;4992241;28;20390;-68
2022/02/20 08:05:04;;;;;;;0.40;0.20;;;7.30;99.90;;;;;;4991809;28;20983;-69
2022/02/20 08:07:30;;;;;;;0.40;0.20;;;7.40;99.90;;;;;;4988533;28;20393;-69
2022/02/20 08:09:56;;;;;;;0.40;0.20;;;7.50;99.90;;;;;;4992058;28;20386;-69
2022/02/20 08:12:21;;;;;;;0.40;0.30;;;7.50;99.90;;;;;;4991748;28;20867;-69
2022/02/20 08:14:48;;;;;;;0.40;0.20;;;7.50;99.90;;;;;;4992306;28;20871;-69
2022/02/20 08:17:14;;;;;;;0.40;0.20;;;7.50;99.90;;;;;;4990210;28;20433;-69
2022/02/20 08:19:39;;;;;;;0.40;0.20;;;7.60;99.90;;;;;;4992021;28;20406;-67
2022/02/20 08:22:05;;;;;;;0.40;0.30;;;7.70;99.90;;;;;;4991724;28;20477;-71
2022/02/20 08:24:32;;;;;;;0.40;0.25;;;7.70;99.90;;;;;;4992243;28;20808;-69
2022/02/20 08:26:58;;;;;;;0.40;0.20;;;7.70;99.90;;;;;;4991682;28;21079;-67
2022/02/20 08:29:24;;;;;;;0.40;0.30;;;7.80;99.90;;;;;;4990626;28;20488;-68
2022/02/20 08:31:49;;;;;;;0.40;0.20;;;7.80;99.90;;;;;;4991181;28;20923;-68
2022/02/20 08:34:15;;;;;;;0.40;0.30;;;8.00;99.90;;;;;;4991439;28;20391;-68
2022/02/20 08:36:41;;;;;;;0.40;0.20;;;7.90;99.90;;;;;;4991101;28;20433;-68
2022/02/20 08:39:07;;;;;;;0.40;0.20;;;7.90;99.90;;;;;;4973807;28;20407;-68
2022/02/20 08:41:35;;;;;;;0.40;0.20;;;7.90;99.90;;;;;;4990983;28;20397;-69
2022/02/20 08:44:01;;;;;;;0.40;0.20;;;8.00;99.90;;;;;;4991501;28;20432;-68
2022/02/20 08:46:26;;;;;;;0.40;0.30;;;7.90;99.90;;;;;;4990491;28;20395;-68
2022/02/20 08:48:52;;;;;;;0.40;0.20;;;7.90;99.90;;;;;;4990842;28;20389;-68
2022/02/20 08:51:18;;;;;;;0.40;0.20;;;7.90;99.90;;;;;;4973679;28;20398;-68
2022/02/20 08:53:44;;;;;;;0.40;0.20;;;7.90;99.90;;;;;;4990276;28;20962;-68
2022/02/20 08:56:10;;;;;;;0.40;0.20;;;8.00;99.90;;;;;;4991093;28;20386;-67
2022/02/20 08:58:36;;;;;;;0.40;0.20;;;8.10;99.90;;;;;;4989659;28;20421;-67
2022/02/20 09:01:02;;;;;;;0.40;0.40;;;8.30;99.90;;;;;;4989727;28;20401;-68
2022/02/20 09:03:31;;;;;;;0.40;0.20;;;8.40;99.90;;;;;;4991197;28;20387;-68
2022/02/20 09:05:57;;;;;;;0.40;0.20;;;8.40;99.90;;;;;;4990150;28;20811;-68
2022/02/20 09:08:23;;;;;;;0.40;0.20;;;8.40;99.90;;;;;;4990633;28;20395;-68
2022/02/20 09:10:48;;;;;;;0.40;0.20;;;8.40;99.90;;;;;;4990194;28;20406;-68
2022/02/20 09:13:15;;;;;;;0.40;0.20;;;8.40;99.90;;;;;;4986909;28;20382;-68
2022/02/20 09:15:41;;;;;;;0.40;0.30;;;8.50;99.90;;;;;;4990468;28;20391;-68
2022/02/20 09:18:06;;;;;;;0.40;0.20;;;8.60;99.90;;;;;;4989788;28;20389;-68
2022/02/20 09:20:33;;;;;;;0.40;0.30;;;8.70;99.90;;;;;;4991184;28;20426;-68
2022/02/20 09:22:59;;;;;;;0.40;0.40;;;8.90;99.90;;;;;;4989485;28;20387;-68
2022/02/20 09:25:24;;;;;;;0.40;0.20;;;8.60;99.90;;;;;;4991363;28;20942;-68
2022/02/20 09:27:50;;;;;;;0.40;0.30;;;8.70;99.90;;;;;;4990025;28;20398;-68
2022/02/20 09:30:16;;;;;;;0.40;0.20;;;8.80;99.90;;;;;;4974044;28;20745;-68
2022/02/20 09:32:42;;;;;;;0.40;0.20;;;8.70;99.90;;;;;;4991541;28;20397;-68
2022/02/20 09:35:08;;;;;;;0.40;0.20;;;8.70;99.90;;;;;;4990231;28;20452;-68
2022/02/20 09:37:34;;;;;;;0.40;0.20;;;8.60;99.90;;;;;;4991451;28;20465;-68
2022/02/20 09:40:00;;;;;;;0.40;0.20;;;8.60;99.90;;;;;;4990334;28;20422;-69
2022/02/20 09:42:26;;;;;;;0.40;0.20;;;8.50;99.90;;;;;;4991229;28;20886;-68
2022/02/20 09:44:52;;;;;;;0.40;0.20;;;8.60;99.90;;;;;;4991299;28;20709;-68
2022/02/20 09:47:25;;;;;;;0.40;0.20;;;8.60;99.90;;;;;;4990012;28;20406;-68
2022/02/20 09:49:56;;;;;;;0.40;0.40;;;8.70;99.90;;;;;;4991274;28;20475;-68
2022/02/20 09:52:22;;;;;;;0.40;0.30;;;8.60;99.90;;;;;;4990881;28;20398;-68
2022/02/20 09:54:47;;;;;;;0.40;0.20;;;8.60;99.90;;;;;;4990830;28;20485;-68
2022/02/20 09:57:13;;;;;;;0.40;0.20;;;8.60;99.90;;;;;;4973070;28;20460;-68
2022/02/20 09:59:39;;;;;;;0.40;0.20;;;8.50;99.90;;;;;;4991066;28;20424;-68
2022/02/20 10:02:10;;;;;;;0.40;0.20;;;8.50;99.90;;;;;;4991017;28;20478;-68
2022/02/20 10:04:43;;;;;;;0.40;0.20;;;8.50;99.90;;;;;;4990720;28;20729;-67
2022/02/20 10:07:28;;;;;;;0.40;0.20;;;8.50;99.90;;;;;;4990671;28;20383;-67
2022/02/20 10:09:55;;;;;;;0.40;0.20;;;8.60;99.90;;;;;;4991106;28;20473;-68
2022/02/20 10:12:23;;;;;;;0.40;0.20;;;8.60;99.90;;;;;;4989862;28;20394;-68
2022/02/20 10:14:49;;;;;;;0.40;0.20;;;8.50;99.90;;;;;;4973828;28;20395;-68
2022/02/20 10:17:17;;;;;;;0.40;0.20;;;8.60;99.90;;;;;;4990799;28;20723;-68
2022/02/20 10:19:54;;;;;;;0.40;0.30;;;8.50;99.90;;;;;;4991012;28;20903;-68
2022/02/20 10:22:33;;;;;;;0.40;0.20;;;8.40;99.90;;;;;;4990273;28;20526;-69
2022/02/20 10:25:00;;;;;;;0.40;0.20;;;8.40;99.90;;;;;;4990881;28;20407;-68
2022/02/20 10:27:26;;;;;;;0.40;0.20;;;8.50;99.90;;;;;;4990642;28;20406;-68
2022/02/20 10:30:13;;;;;;;0.40;0.20;;;8.40;99.90;;;;;;4990995;28;20445;-67
2022/02/20 10:32:39;;;;;;;0.50;0.50;;;8.50;99.90;;;;;;4977315;28;20449;-68
2022/02/20 10:35:16;;;;;;;0.40;0.20;;;8.50;99.90;;;;;;4990993;28;20794;-67
2022/02/20 10:37:43;;;;;;;0.40;0.30;;;8.50;99.90;;;;;;4972694;28;20391;-68
2022/02/20 10:40:31;;;;;;;0.40;0.20;;;8.50;99.90;;;;;;4992589;28;20402;-68
2022/02/20 10:43:05;;;;;;;0.40;0.30;;;8.60;99.90;;;;;;4994791;28;20506;-67
2022/02/20 10:45:37;;;;;;;0.40;0.20;;;8.60;99.90;;;;;;4993539;28;20685;-69
2022/02/20 10:48:13;;;;;;;0.40;0.20;;;8.80;99.90;;;;;;4994670;28;20400;-68
2022/02/20 10:50:39;;;;;;;0.40;0.20;;;8.90;99.90;;;;;;4993723;28;20709;-68
2022/02/20 10:53:18;;;;;;;0.40;0.20;;;8.90;99.90;;;;;;4994615;28;20486;-68
2022/02/20 10:55:48;;;;;;;0.40;0.20;;;8.90;99.90;;;;;;4993700;28;20387;-68
2022/02/20 10:58:19;;;;;;;0.40;0.20;;;8.80;99.90;;;;;;4994462;28;20461;-69
2022/02/20 11:00:50;;;;;;;0.40;0.20;;;9.00;99.90;;;;;;4993531;28;20934;-69
2022/02/20 11:03:17;;;;;;;0.40;0.20;;;9.30;99.90;;;;;;4994975;28;20397;-69
2022/02/20 11:05:43;;;;;;;0.40;0.20;;;9.20;99.90;;;;;;4993601;28;20426;-70
2022/02/20 11:08:11;;;;;;;0.40;0.20;;;9.30;99.90;;;;;;4994266;28;20383;-69
2022/02/20 11:10:41;;;;;;;0.40;0.20;;;9.10;99.90;;;;;;4993409;28;20949;-68
2022/02/20 11:13:09;;;;;;;0.40;0.28;;;9.00;99.90;;;;;;4993754;28;20387;-68
2022/02/20 11:15:35;;;;;;;0.40;0.20;;;9.00;99.90;;;;;;4994024;28;20382;-69
2022/02/20 11:18:03;;;;;;;0.40;0.20;;;8.90;99.90;;;;;;4993074;28;20485;-68
2022/02/20 11:20:30;;;;;;;0.40;0.20;;;8.80;99.90;;;;;;4993873;28;20425;-68
2022/02/20 11:23:00;;;;;;;0.40;0.20;;;8.90;99.90;;;;;;4993050;28;20807;-69
2022/02/20 11:25:26;;;;;;;0.40;0.20;;;8.90;99.90;;;;;;4976157;28;20394;-69
2022/02/20 11:27:55;;;;;;;0.40;0.20;;;8.90;99.90;;;;;;4992826;28;20383;-69
2022/02/20 11:30:21;;;;;;;0.60;0.60;;;8.80;99.90;;;;;;4993625;28;20391;-69
2022/02/20 11:32:48;;;;;;;0.40;0.20;;;8.80;99.90;;;;;;4993760;28;20910;-69
2022/02/20 11:35:14;;;;;;;0.40;0.20;;;8.80;99.90;;;;;;4993179;28;20486;-69
2022/02/20 11:37:52;;;;;;;0.40;0.20;;;8.80;99.90;;;;;;4993031;28;20382;-69
2022/02/20 11:40:20;;;;;;;0.40;0.20;;;8.70;99.90;;;;;;4992951;28;20413;-69
2022/02/20 11:43:01;;;;;;;0.40;0.20;;;8.70;99.90;;;;;;4993534;28;20383;-69
2022/02/20 11:45:28;;;;;;;0.40;0.20;;;8.70;99.90;;;;;;4993112;28;20394;-69
2022/02/20 11:48:10;;;;;;;0.40;0.20;;;8.80;99.90;;;;;;4993243;28;20387;-69
2022/02/20 11:50:42;;;;;;;0.40;0.20;;;8.80;99.90;;;;;;4972458;28;20814;-69
2022/02/20 11:53:10;;;;;;;0.40;0.20;;;9.10;99.90;;;;;;4992425;28;20740;-70
2022/02/20 11:55:41;;;;;;;0.40;0.20;;;9.20;99.90;;;;;;4992737;28;20752;-70
2022/02/20 11:58:23;;;;;;;0.40;0.30;;;9.20;99.90;;;;;;4989260;28;20457;-69
2022/02/20 12:00:55;;;;;;;0.40;0.20;;;9.30;99.90;;;;;;4988081;28;20421;-69
2022/02/20 12:03:22;;;;;;;0.40;0.20;;;9.20;99.90;;;;;;4988617;28;20746;-69
2022/02/20 12:08:47;;;;;;;0.40;0.20;;;9.40;99.90;;;;;;4986914;28;20420;-69
2022/02/20 12:11:16;;;;;;;0.40;0.20;;;9.30;99.90;;;;;;4989516;28;20885;-69
2022/02/20 12:14:14;;;;;;;0.40;0.30;;;9.50;99.90;;;;;;4989412;28;20478;-68
2022/02/20 12:16:46;;;;;;;0.40;0.20;;;9.80;99.90;;;;;;4986809;28;20865;-68
2022/02/20 12:19:20;;;;;;;0.40;0.20;;;9.90;99.90;;;;;;4990563;28;20506;-68
2022/02/20 12:22:08;;;;;;;0.40;0.20;;;10.00;99.90;;;;;;4988075;28;20402;-69
2022/02/20 12:24:52;;;;;;;0.40;0.40;;;10.40;99.90;;;;;;4968320;28;20484;-70
2022/02/20 12:27:20;;;;;;;0.40;0.20;;;10.60;99.90;;;;;;4987015;28;20406;-70
2022/02/20 12:29:50;;;;;;;0.40;0.20;;;11.00;99.60;;;;;;4989285;28;20780;-69
2022/02/20 12:32:17;;;;;;;0.40;0.20;;;11.50;97.80;;;;;;4987684;28;20413;-69
2022/02/20 12:35:08;;;;;;;0.40;0.20;;;11.30;97.90;;;;;;4988260;28;20395;-69
2022/02/20 12:37:52;;;;;;;0.40;0.20;;;12.00;96.30;;;;;;4984308;28;20429;-70
2022/02/20 12:40:22;;;;;;;0.40;0.20;;;11.90;95.40;;;;;;4990767;28;20410;-69
2022/02/20 12:42:57;;;;;;;0.40;0.20;;;11.50;96.40;;;;;;4991588;28;20410;-69
2022/02/20 12:45:26;;;;;;;0.40;0.20;;;11.80;96.20;;;;;;4986346;28;20395;-71
2022/02/20 12:47:55;;;;;;;0.40;0.20;;;11.40;96.40;;;;;;4971116;28;20489;-70
2022/02/20 12:50:25;;;;;;;0.40;0.20;;;11.20;97.40;;;;;;4990577;28;21424;-71
2022/02/20 12:52:52;;;;;;;0.40;0.20;;;11.20;96.90;;;;;;4988527;28;20418;-72
2022/02/20 12:55:20;;;;;;;0.40;0.20;;;11.10;97.40;;;;;;4968322;28;20390;-70
2022/02/20 12:57:47;;;;;;;0.40;0.20;;;10.80;97.90;;;;;;4990328;28;20395;-70
2022/02/20 13:00:15;;;;;;;0.40;0.20;;;11.10;97.70;;;;;;4987390;28;20417;-71